Time;durP1;ratioP1;P1;durP2;ratioP2;P2;SDS_P1;SDS_P2;PMS_P1;PMS_P2;Temp;Humidity;BMP_temperature;BMP_pressure;BME280_temperature;BME280_humidity;BME280_pressure;Samples;Min_cycle;Max_cycle;Signal;HPM_P1;HPM_P2
2023/12/31 00:00:52;;;;;;;5.95;3.60;;;;;;;24.58;36.22;98858.88;4989519;28;20371;-45
2023/12/31 00:03:17;;;;;;;6.00;3.92;;;;;;;24.56;36.26;98830.31;4981795;28;20030;-45
2023/12/31 00:05:43;;;;;;;5.43;3.20;;;;;;;24.56;36.18;98820.03;4983459;28;20040;-45
2023/12/31 00:08:10;;;;;;;6.80;3.67;;;;;;;24.58;36.19;98822.28;4984728;28;20030;-46
2023/12/31 00:10:35;;;;;;;5.70;3.50;;;;;;;24.59;36.11;98809.97;4984097;28;20042;-44
2023/12/31 00:13:00;;;;;;;5.82;3.50;;;;;;;24.57;36.20;98804.97;4985488;28;20629;-44
2023/12/31 00:15:26;;;;;;;5.78;3.40;;;;;;;24.57;36.19;98804.22;4980800;28;20080;-46
2023/12/31 00:17:51;;;;;;;6.00;3.72;;;;;;;24.58;36.19;98805.72;4982481;28;20022;-46
2023/12/31 00:20:16;;;;;;;5.20;2.92;;;;;;;24.57;36.19;98799.47;4985964;28;20041;-45
2023/12/31 00:22:42;;;;;;;5.90;3.38;;;;;;;24.59;36.06;98804.44;4988531;28;20477;-43
2023/12/31 00:25:08;;;;;;;5.50;3.35;;;;;;;24.59;36.23;98796.16;4984874;28;20018;-44
2023/12/31 00:27:33;;;;;;;5.40;3.20;;;;;;;24.55;36.05;98790.19;4988101;28;20026;-46
2023/12/31 00:29:58;;;;;;;5.70;3.38;;;;;;;24.57;36.10;98793.94;4984230;28;20092;-46
2023/12/31 00:32:24;;;;;;;5.90;3.30;;;;;;;24.56;35.99;98786.94;4988150;28;20196;-44
2023/12/31 00:34:49;;;;;;;5.30;3.00;;;;;;;24.58;36.14;98778.16;4984732;28;20027;-44
2023/12/31 00:37:14;;;;;;;5.20;3.00;;;;;;;24.57;36.18;98762.84;4987930;28;20026;-47
2023/12/31 00:39:40;;;;;;;5.40;3.08;;;;;;;24.57;36.06;98766.34;4985874;28;20084;-44
2023/12/31 00:42:05;;;;;;;5.55;3.10;;;;;;;24.54;36.00;98744.56;4985384;28;20482;-45
2023/12/31 00:44:31;;;;;;;5.20;3.00;;;;;;;24.55;36.14;98740.53;4985992;28;20045;-44
2023/12/31 00:46:56;;;;;;;5.20;2.92;;;;;;;24.54;36.04;98728.00;4988446;28;20695;-45
2023/12/31 00:49:22;;;;;;;6.13;2.78;;;;;;;24.53;36.07;98727.25;4986522;28;20106;-45
2023/12/31 00:51:47;;;;;;;5.07;2.88;;;;;;;24.51;36.04;98737.31;4985551;28;20034;-44
2023/12/31 00:54:12;;;;;;;5.15;2.92;;;;;;;24.55;36.07;98732.25;4984976;28;20037;-47
2023/12/31 00:56:38;;;;;;;4.90;2.90;;;;;;;24.54;36.01;98739.78;4984217;28;20022;-45
2023/12/31 00:59:03;;;;;;;4.88;2.60;;;;;;;24.55;36.13;98735.03;4985991;28;20021;-45
2023/12/31 01:01:29;;;;;;;4.70;2.50;;;;;;;24.53;36.14;98729.25;4985987;28;20045;-46
2023/12/31 01:03:54;;;;;;;4.72;2.63;;;;;;;24.53;36.02;98727.25;4985162;28;20477;-44
2023/12/31 01:06:19;;;;;;;4.70;2.47;;;;;;;24.50;36.19;98722.00;4982219;28;20488;-44
2023/12/31 01:08:45;;;;;;;5.38;2.72;;;;;;;24.50;36.14;98710.97;4983275;28;20037;-44
2023/12/31 01:11:10;;;;;;;4.70;2.47;;;;;;;24.49;36.18;98712.22;4988713;28;20088;-44
2023/12/31 01:13:35;;;;;;;4.68;2.50;;;;;;;24.50;36.23;98702.69;4985742;28;20045;-44
2023/12/31 01:16:01;;;;;;;4.60;2.58;;;;;;;24.50;36.14;98699.94;4989434;28;21623;-45
2023/12/31 01:18:26;;;;;;;4.82;2.50;;;;;;;24.50;36.08;98695.16;4985982;28;20022;-46
2023/12/31 01:20:51;;;;;;;4.55;2.40;;;;;;;24.50;36.01;98705.47;4987876;28;20027;-44
2023/12/31 01:23:17;;;;;;;4.45;2.30;;;;;;;24.48;36.09;98708.72;4984877;28;20534;-43
2023/12/31 01:25:42;;;;;;;4.40;2.30;;;;;;;24.50;36.05;98705.47;4985571;28;20048;-45
2023/12/31 01:28:07;;;;;;;4.70;2.40;;;;;;;24.47;36.05;98712.00;4985345;28;20101;-44
2023/12/31 01:30:33;;;;;;;4.90;2.40;;;;;;;24.47;36.03;98709.22;4980834;28;20038;-45
2023/12/31 01:32:58;;;;;;;4.75;2.55;;;;;;;24.48;36.01;98694.19;4983439;28;20032;-47
2023/12/31 01:35:23;;;;;;;4.60;2.40;;;;;;;24.47;36.20;98679.66;4985622;28;20026;-44
2023/12/31 01:37:49;;;;;;;4.75;2.30;;;;;;;24.44;35.97;98674.41;4984693;28;20405;-45
2023/12/31 01:40:14;;;;;;;4.15;2.20;;;;;;;24.48;35.99;98677.63;4987226;28;20030;-46
2023/12/31 01:42:40;;;;;;;4.95;2.58;;;;;;;24.50;36.26;98677.88;4984393;28;20606;-46
2023/12/31 01:45:05;;;;;;;4.18;2.10;;;;;;;24.46;36.00;98671.88;4987322;28;20032;-45
2023/12/31 01:47:34;;;;;;;4.57;2.40;;;;;;;24.47;35.99;98668.59;4985827;28;20490;-45
2023/12/31 01:50:00;;;;;;;4.47;2.25;;;;;;;24.46;35.90;98669.88;5015592;28;20031;-45
2023/12/31 01:52:25;;;;;;;4.20;2.20;;;;;;;24.48;36.01;98667.34;4998579;28;20185;-43
2023/12/31 01:54:52;;;;;;;4.10;2.00;;;;;;;24.46;35.87;98661.59;4984019;28;20124;-45
2023/12/31 01:57:17;;;;;;;4.00;2.00;;;;;;;24.49;35.83;98659.81;4983536;28;20030;-47
2023/12/31 01:59:43;;;;;;;4.70;2.33;;;;;;;24.48;35.99;98652.81;5017301;28;20023;-47
2023/12/31 02:02:08;;;;;;;4.60;2.20;;;;;;;24.48;35.99;98641.78;5013704;28;20025;-46
2023/12/31 02:04:33;;;;;;;4.13;2.17;;;;;;;24.48;35.90;98647.28;4985756;28;20489;-46
2023/12/31 02:07:00;;;;;;;4.35;2.20;;;;;;;24.48;35.91;98633.50;4986070;28;20027;-47
2023/12/31 02:09:26;;;;;;;4.10;2.10;;;;;;;24.47;35.95;98629.25;4981521;28;20022;-45
2023/12/31 02:11:51;;;;;;;4.18;1.92;;;;;;;24.46;35.91;98619.47;4985502;28;20111;-46
2023/12/31 02:14:16;;;;;;;4.00;2.00;;;;;;;24.46;35.90;98611.19;4984390;28;20027;-46
2023/12/31 02:16:42;;;;;;;4.32;2.20;;;;;;;24.45;35.92;98601.41;4981711;28;20140;-44
2023/12/31 02:19:07;;;;;;;3.78;1.85;;;;;;;24.44;35.93;98594.41;4986297;28;20402;-46
2023/12/31 02:21:32;;;;;;;3.83;1.90;;;;;;;24.42;36.06;98588.66;4986576;28;20417;-45
2023/12/31 02:23:58;;;;;;;3.80;1.80;;;;;;;24.44;36.17;98575.09;4982604;28;20035;-44
2023/12/31 02:26:23;;;;;;;3.92;1.80;;;;;;;24.47;35.92;98579.59;4983752;28;20030;-44
2023/12/31 02:28:48;;;;;;;4.25;2.00;;;;;;;24.45;35.96;98590.38;4984258;28;20032;-44
2023/12/31 02:31:14;;;;;;;3.97;1.77;;;;;;;24.46;35.89;98575.34;4982629;28;20509;-45
2023/12/31 02:33:39;;;;;;;3.85;1.90;;;;;;;24.43;36.03;98579.13;4984716;28;20027;-46
2023/12/31 02:36:05;;;;;;;3.72;1.85;;;;;;;24.44;36.00;98559.31;4984357;28;20038;-45
2023/12/31 02:38:30;;;;;;;3.63;1.90;;;;;;;24.46;35.97;98553.28;4981531;28;20474;-45
2023/12/31 02:40:56;;;;;;;3.90;1.70;;;;;;;24.46;35.99;98545.00;4981075;28;20026;-45
2023/12/31 02:43:21;;;;;;;3.53;1.70;;;;;;;24.44;36.10;98555.78;4984419;28;20041;-45
2023/12/31 02:45:46;;;;;;;3.75;1.85;;;;;;;24.46;36.00;98545.00;4982141;28;20030;-45
2023/12/31 02:48:12;;;;;;;3.88;1.80;;;;;;;24.47;36.01;98538.97;4986833;28;20022;-47
2023/12/31 02:50:37;;;;;;;3.88;1.80;;;;;;;24.45;35.99;98533.22;4984448;28;20036;-48
2023/12/31 02:53:03;;;;;;;3.38;1.73;;;;;;;24.44;36.16;98526.19;4989275;28;20397;-47
2023/12/31 02:55:28;;;;;;;3.58;1.50;;;;;;;24.45;36.06;98529.72;4986067;28;20092;-46
2023/12/31 02:57:54;;;;;;;3.97;1.80;;;;;;;24.44;35.97;98522.69;4983748;28;20027;-46
2023/12/31 03:00:19;;;;;;;3.25;1.60;;;;;;;24.48;35.99;98528.69;4982299;28;20030;-46
2023/12/31 03:02:44;;;;;;;3.72;1.63;;;;;;;24.46;36.00;98518.16;4984414;28;20027;-45
2023/12/31 03:05:12;;;;;;;3.72;1.60;;;;;;;24.48;36.08;98520.41;4981640;28;20052;-44
2023/12/31 03:07:37;;;;;;;;;;;;;;;24.46;35.92;98515.41;4990059;28;20065;-44
2023/12/31 03:10:03;;;;;;;3.40;1.63;;;;;;;24.46;35.98;98503.63;4984913;28;19968;-47
2023/12/31 03:12:28;;;;;;;3.80;1.75;;;;;;;24.45;36.09;98493.84;4986301;28;20105;-44
2023/12/31 03:14:55;;;;;;;3.55;1.70;;;;;;;24.43;36.01;98490.84;4983476;28;20029;-47
2023/12/31 03:17:20;;;;;;;3.80;1.70;;;;;;;24.45;35.99;98486.31;4985455;28;20022;-46
2023/12/31 03:19:45;;;;;;;3.15;1.48;;;;;;;24.48;35.95;98482.53;4982211;28;20029;-47
2023/12/31 03:22:11;;;;;;;3.28;1.48;;;;;;;24.46;36.03;98478.78;4981996;28;20042;-44
2023/12/31 03:24:36;;;;;;;3.53;1.50;;;;;;;24.47;35.99;98474.78;4982892;28;20022;-45
2023/12/31 03:27:02;;;;;;;2.80;1.33;;;;;;;24.43;36.05;98452.25;4980691;28;20086;-44
2023/12/31 03:29:27;;;;;;;3.50;1.60;;;;;;;24.44;36.00;98459.25;4978479;28;20033;-44
2023/12/31 03:31:53;;;;;;;3.75;1.50;;;;;;;24.42;36.14;98451.50;4985087;28;20033;-44
2023/12/31 03:34:18;;;;;;;3.38;1.52;;;;;;;24.43;36.16;98452.25;4979003;28;20145;-45
2023/12/31 03:36:44;;;;;;;3.20;1.50;;;;;;;24.45;36.10;98449.72;4981799;28;20034;-46
2023/12/31 03:39:09;;;;;;;3.05;1.40;;;;;;;24.44;36.06;98445.47;4983401;28;20030;-44
2023/12/31 03:41:35;;;;;;;3.20;1.50;;;;;;;24.47;36.21;98434.16;4981620;28;20048;-44
2023/12/31 03:44:00;;;;;;;3.22;1.50;;;;;;;24.49;35.95;98434.38;4981737;28;20088;-46
2023/12/31 03:46:25;;;;;;;2.63;1.20;;;;;;;24.52;35.97;98421.56;4981440;28;20475;-46
2023/12/31 03:48:51;;;;;;;3.20;1.50;;;;;;;24.54;35.96;98419.03;4979492;28;20034;-48
2023/12/31 03:51:16;;;;;;;2.85;1.38;;;;;;;24.57;35.86;98423.53;4978808;28;20504;-45
2023/12/31 03:53:42;;;;;;;3.25;1.42;;;;;;;24.58;35.94;98431.25;4978636;28;20096;-46
2023/12/31 03:56:10;;;;;;;2.53;1.30;;;;;;;24.58;35.93;98419.50;4983184;28;20037;-44
2023/12/31 03:58:35;;;;;;;3.28;1.48;;;;;;;24.58;35.83;98411.94;4982687;28;20022;-46
2023/12/31 04:01:01;;;;;;;2.50;1.30;;;;;;;24.60;35.88;98414.19;4980377;28;20030;-45
2023/12/31 04:03:26;;;;;;;3.72;1.63;;;;;;;24.58;35.91;98406.41;4978286;28;20026;-46
2023/12/31 04:05:52;;;;;;;3.40;1.50;;;;;;;24.62;35.83;98417.16;4978879;28;20026;-45
2023/12/31 04:08:18;;;;;;;2.33;1.20;;;;;;;24.64;35.85;98420.16;4979427;28;20093;-44
2023/12/31 04:10:43;;;;;;;3.15;1.50;;;;;;;24.63;35.83;98415.91;4982743;28;20038;-44
2023/12/31 04:13:08;;;;;;;2.72;1.30;;;;;;;24.67;35.69;98408.81;4980326;28;20073;-44
2023/12/31 04:15:34;;;;;;;3.00;1.40;;;;;;;24.63;35.72;98402.84;4980290;28;20677;-44
2023/12/31 04:17:59;;;;;;;2.65;1.20;;;;;;;24.62;35.79;98409.63;4980250;28;20048;-44
2023/12/31 04:20:24;;;;;;;2.75;1.30;;;;;;;24.62;35.95;98417.91;4981482;28;20398;-44
2023/12/31 04:22:50;;;;;;;3.08;1.27;;;;;;;24.62;35.76;98417.91;4980808;28;20038;-45
2023/12/31 04:25:15;;;;;;;2.65;1.20;;;;;;;24.67;35.93;98432.91;4984836;28;20080;-46
2023/12/31 04:27:44;;;;;;;2.47;1.15;;;;;;;24.65;35.96;98433.44;4981281;28;20066;-45
2023/12/31 04:30:10;;;;;;;2.90;1.33;;;;;;;24.66;35.96;98431.41;4983277;28;20066;-45
2023/12/31 04:32:35;;;;;;;3.10;1.40;;;;;;;24.66;35.76;98439.69;4983394;28;20033;-47
2023/12/31 04:35:01;;;;;;;3.00;1.30;;;;;;;24.67;35.89;98433.66;4978236;28;20026;-45
2023/12/31 04:37:26;;;;;;;2.80;1.30;;;;;;;24.68;35.83;98434.41;4983846;28;20033;-45
2023/12/31 04:39:52;;;;;;;2.70;1.27;;;;;;;24.65;36.01;98436.19;4980394;28;20034;-45
2023/12/31 04:42:17;;;;;;;2.47;1.25;;;;;;;24.68;35.95;98439.94;4980394;28;20042;-47
2023/12/31 04:44:43;;;;;;;2.78;1.30;;;;;;;24.68;36.06;98434.41;4979366;28;20395;-44
2023/12/31 04:47:09;;;;;;;2.47;1.13;;;;;;;24.68;35.44;98434.41;4984451;28;20038;-45
2023/12/31 04:49:34;;;;;;;2.40;1.20;;;;;;;24.66;35.87;98443.19;4981997;28;20014;-45
2023/12/31 04:51:59;;;;;;;1.98;1.08;;;;;;;24.69;35.87;98442.16;4982710;28;20033;-45
2023/12/31 04:54:25;;;;;;;1.98;1.10;;;;;;;24.72;35.92;98437.63;4981033;28;20588;-43
2023/12/31 04:56:50;;;;;;;2.25;1.20;;;;;;;24.72;35.85;98434.88;4981823;28;20023;-44
2023/12/31 04:59:15;;;;;;;3.42;1.25;;;;;;;24.72;35.75;98429.34;4981035;28;20029;-43
2023/12/31 05:01:41;;;;;;;2.65;1.10;;;;;;;24.73;35.64;98442.63;4977736;28;20493;-45
2023/12/31 05:04:06;;;;;;;2.67;1.17;;;;;;;24.70;35.57;98435.38;4979414;28;20030;-44
2023/12/31 05:06:32;;;;;;;2.85;1.25;;;;;;;24.75;35.64;98438.59;4985564;28;20355;-44
2023/12/31 05:08:58;;;;;;;2.72;1.23;;;;;;;24.75;35.63;98439.34;4985463;28;20069;-47
2023/12/31 05:11:24;;;;;;;2.78;1.27;;;;;;;24.75;35.38;98444.88;4981806;28;20026;-45
2023/12/31 05:13:49;;;;;;;1.95;1.10;;;;;;;24.73;35.66;98441.88;4986703;28;20049;-44
2023/12/31 05:16:14;;;;;;;3.28;1.40;;;;;;;24.73;35.63;98433.59;4984011;28;20034;-46
2023/12/31 05:18:43;;;;;;;2.38;1.15;;;;;;;24.70;35.75;98432.63;4986144;28;20022;-45
2023/12/31 05:21:09;;;;;;;2.30;1.13;;;;;;;24.71;35.53;98427.84;4982539;28;20375;-44
2023/12/31 05:23:35;;;;;;;2.28;1.20;;;;;;;24.71;35.36;98430.59;4985516;28;20034;-47
2023/12/31 05:26:00;;;;;;;2.95;1.20;;;;;;;24.70;35.67;98440.16;4981380;28;20024;-46
2023/12/31 05:28:26;;;;;;;2.05;1.10;;;;;;;24.70;35.57;98426.34;4986774;28;20014;-46
2023/12/31 05:30:51;;;;;;;2.38;1.05;;;;;;;24.70;35.60;98429.13;4984501;28;20040;-45
2023/12/31 05:33:16;;;;;;;5.28;1.30;;;;;;;24.71;35.71;98427.84;4988266;28;20034;-44
2023/12/31 05:35:42;;;;;;;2.97;1.10;;;;;;;24.70;35.89;98418.81;4984367;28;20052;-45
2023/12/31 05:38:07;;;;;;;4.30;1.40;;;;;;;24.70;35.64;98426.34;4987120;28;20071;-46
2023/12/31 05:40:32;;;;;;;2.83;1.30;;;;;;;24.69;35.80;98433.16;4986809;28;20045;-45
2023/12/31 05:42:58;;;;;;;2.47;1.20;;;;;;;24.67;35.76;98435.66;4983765;28;20026;-46
2023/12/31 05:45:23;;;;;;;2.28;1.20;;;;;;;24.68;35.74;98437.16;4986602;28;20676;-47
2023/12/31 05:47:49;;;;;;;3.05;1.20;;;;;;;24.73;35.73;98441.88;4978008;28;20105;-47
2023/12/31 05:50:14;;;;;;;2.88;1.27;;;;;;;24.74;35.73;98437.84;4979822;28;20437;-46
2023/12/31 05:52:40;;;;;;;2.63;1.25;;;;;;;24.72;35.86;98435.63;4985421;28;20024;-47
2023/12/31 05:55:05;;;;;;;4.03;1.30;;;;;;;24.76;35.79;98440.84;4983811;28;20084;-45
2023/12/31 05:57:31;;;;;;;3.70;1.55;;;;;;;24.77;35.77;98439.56;4988547;28;20081;-44
2023/12/31 05:59:56;;;;;;;3.33;1.30;;;;;;;24.83;35.75;98445.75;4988021;28;20028;-46
2023/12/31 06:02:22;;;;;;;3.17;1.20;;;;;;;24.85;35.76;98448.75;4983472;28;20038;-44
2023/12/31 06:04:47;;;;;;;5.20;1.40;;;;;;;24.83;35.80;98443.00;4986283;28;20018;-47
2023/12/31 06:07:12;;;;;;;3.35;1.20;;;;;;;24.82;35.97;98444.25;4978263;28;20151;-44
2023/12/31 06:09:38;;;;;;;5.47;1.30;;;;;;;24.84;36.07;98436.22;4984604;28;20372;-43
2023/12/31 06:12:04;;;;;;;2.70;1.17;;;;;;;24.80;36.26;98441.28;4981099;28;20022;-42
2023/12/31 06:14:29;;;;;;;3.53;1.10;;;;;;;24.84;36.26;98436.22;4981211;28;20175;-53
2023/12/31 06:16:54;;;;;;;3.20;1.23;;;;;;;24.84;36.40;98425.16;4982688;28;20571;-47
2023/12/31 06:19:20;;;;;;;4.45;1.30;;;;;;;24.83;36.56;98423.66;4987070;28;20030;-46
2023/12/31 06:21:45;;;;;;;4.93;1.42;;;;;;;24.84;36.56;98419.66;4983744;28;20030;-47
2023/12/31 06:24:10;;;;;;;3.03;1.25;;;;;;;24.82;36.69;98427.69;4983105;28;20401;-47
2023/12/31 06:26:36;;;;;;;2.35;1.20;;;;;;;24.81;36.86;98420.69;4984378;28;20022;-46
2023/12/31 06:29:01;;;;;;;3.25;1.20;;;;;;;24.84;36.78;98411.38;4984118;28;20492;-46
2023/12/31 06:31:26;;;;;;;4.65;1.40;;;;;;;24.86;36.58;98417.13;4979853;28;20035;-47
2023/12/31 06:33:52;;;;;;;5.22;1.30;;;;;;;24.85;36.44;98399.06;4981882;28;20031;-47
2023/12/31 06:36:17;;;;;;;4.18;1.40;;;;;;;24.86;36.74;98397.03;4983777;28;20030;-46
2023/12/31 06:38:43;;;;;;;5.90;1.30;;;;;;;24.85;36.40;98390.78;4977863;28;20021;-45
2023/12/31 06:41:08;;;;;;;3.45;1.30;;;;;;;24.86;36.32;98388.78;4982918;28;20113;-44
2023/12/31 06:43:36;;;;;;;4.13;1.50;;;;;;;24.84;36.18;98403.09;4980920;28;20077;-45
2023/12/31 06:46:03;;;;;;;4.57;1.65;;;;;;;24.90;35.95;98392.72;4986815;28;20032;-47
2023/12/31 06:48:28;;;;;;;4.00;1.30;;;;;;;24.90;36.04;98373.41;4983032;28;20601;-46
2023/12/31 06:50:53;;;;;;;3.38;1.20;;;;;;;24.88;35.74;98370.41;4983075;28;20022;-47
2023/12/31 06:53:19;;;;;;;5.10;1.75;;;;;;;24.84;35.47;98363.69;4982232;28;20026;-51
2023/12/31 06:55:44;;;;;;;4.20;1.40;;;;;;;24.85;35.47;98365.19;4981629;28;20026;-46
2023/12/31 06:58:10;;;;;;;5.13;1.30;;;;;;;24.84;35.49;98361.69;4980361;28;20410;-49
2023/12/31 07:00:35;;;;;;;2.22;1.10;;;;;;;24.83;35.23;98356.69;4979739;28;20030;-45
2023/12/31 07:03:01;;;;;;;3.00;1.30;;;;;;;24.83;35.30;98351.91;4980801;28;20023;-44
2023/12/31 07:05:26;;;;;;;2.55;1.20;;;;;;;24.88;35.10;98337.31;4983581;28;20093;-46
2023/12/31 07:07:52;;;;;;;3.35;1.40;;;;;;;24.87;35.41;98341.31;4981906;28;20443;-46
2023/12/31 07:10:17;;;;;;;3.47;1.40;;;;;;;24.89;34.89;98352.59;4981872;28;20046;-42
2023/12/31 07:12:42;;;;;;;3.42;1.50;;;;;;;24.88;35.07;98353.84;4977090;28;20026;-46
2023/12/31 07:15:09;;;;;;;7.63;1.35;;;;;;;24.92;35.14;98346.03;4984079;28;20033;-48
2023/12/31 07:17:34;;;;;;;4.38;1.48;;;;;;;24.96;35.08;98354.78;4986312;28;20510;-45
2023/12/31 07:19:59;;;;;;;3.05;1.38;;;;;;;24.95;34.74;98350.53;4983303;28;20033;-48
2023/12/31 07:22:25;;;;;;;2.95;1.50;;;;;;;24.96;34.86;98348.53;4981587;28;20454;-48
2023/12/31 07:24:50;;;;;;;3.97;1.50;;;;;;;24.96;34.87;98335.47;4981302;28;20026;-47
2023/12/31 07:27:15;;;;;;;2.92;1.20;;;;;;;24.94;34.83;98349.03;4980874;28;20509;-51
2023/12/31 07:29:41;;;;;;;3.55;1.20;;;;;;;24.96;34.98;98335.47;4980582;28;20014;-44
2023/12/31 07:32:06;;;;;;;2.80;1.17;;;;;;;24.95;34.82;98341.50;4983745;28;20033;-43
2023/12/31 07:34:32;;;;;;;2.83;1.20;;;;;;;24.97;34.59;98334.19;4980778;28;20046;-47
2023/12/31 07:36:57;;;;;;;3.00;1.38;;;;;;;24.99;34.88;98328.13;4983548;28;20026;-45
2023/12/31 07:39:22;;;;;;;4.35;1.30;;;;;;;25.04;34.66;98328.03;4984320;28;20030;-47
2023/12/31 07:41:48;;;;;;;4.40;1.23;;;;;;;25.04;34.77;98327.31;4980929;28;20022;-50
2023/12/31 07:44:13;;;;;;;4.63;1.25;;;;;;;25.05;34.62;98323.28;4980029;28;20084;-48
2023/12/31 07:46:39;;;;;;;5.45;1.30;;;;;;;25.06;34.80;98314.47;4986162;28;20038;-47
2023/12/31 07:49:04;;;;;;;3.22;1.30;;;;;;;25.05;34.78;98312.22;4981451;28;20024;-44
2023/12/31 07:51:30;;;;;;;2.55;1.20;;;;;;;25.04;34.75;98310.75;4980595;28;20075;-50
2023/12/31 07:53:55;;;;;;;5.07;1.40;;;;;;;25.04;34.44;98307.97;4984405;28;20027;-47
2023/12/31 07:56:20;;;;;;;7.70;1.50;;;;;;;25.05;34.60;98306.72;4979677;28;20030;-48
2023/12/31 07:58:46;;;;;;;3.45;1.20;;;;;;;25.06;34.58;98288.88;4982345;28;20033;-48
2023/12/31 08:01:11;;;;;;;9.18;1.60;;;;;;;25.11;34.26;98292.81;4977049;28;20034;-47
2023/12/31 08:03:36;;;;;;;7.03;1.30;;;;;;;25.19;34.16;98294.41;4982102;28;20034;-47
2023/12/31 08:06:03;;;;;;;5.88;1.35;;;;;;;25.17;34.17;98301.78;4981256;28;20018;-48
2023/12/31 08:08:29;;;;;;;5.53;1.27;;;;;;;25.13;33.91;98282.00;4979401;28;20077;-55
2023/12/31 08:10:55;;;;;;;3.53;1.20;;;;;;;25.09;33.99;98289.84;4982684;28;20030;-50
2023/12/31 08:13:21;;;;;;;4.57;1.40;;;;;;;25.09;34.13;98296.09;4988810;28;20027;-48
2023/12/31 08:15:46;;;;;;;5.50;1.40;;;;;;;25.08;34.04;98315.97;4985218;28;20105;-42
2023/12/31 08:18:12;;;;;;;5.25;1.40;;;;;;;25.09;34.18;98309.16;4984216;28;20030;-50
2023/12/31 08:20:37;;;;;;;12.55;1.58;;;;;;;25.09;34.14;98311.94;4986498;28;20074;-47
2023/12/31 08:23:03;;;;;;;4.40;1.40;;;;;;;25.06;34.15;98308.94;4990198;28;20065;-47
2023/12/31 08:25:29;;;;;;;4.22;1.58;;;;;;;25.07;33.92;98309.69;4995635;28;20027;-50
2023/12/31 08:27:54;;;;;;;5.22;1.48;;;;;;;25.06;33.93;98308.19;4980633;28;20030;-49
2023/12/31 08:30:20;;;;;;;3.80;1.30;;;;;;;25.05;34.13;98301.19;4977508;28;20034;-48
2023/12/31 08:32:45;;;;;;;4.07;1.20;;;;;;;25.04;33.94;98300.44;4983607;28;20030;-48
2023/12/31 08:35:11;;;;;;;2.80;1.20;;;;;;;25.01;34.12;98301.50;4983697;28;20018;-48
2023/12/31 08:37:36;;;;;;;4.10;1.33;;;;;;;25.11;33.96;98290.06;4980395;28;20510;-47
2023/12/31 08:40:03;;;;;;;4.15;1.58;;;;;;;25.08;34.04;98285.59;4994858;28;20905;-48
2023/12/31 08:42:28;;;;;;;5.10;1.50;;;;;;;25.04;33.94;98286.63;4981720;28;20038;-47
2023/12/31 08:44:54;;;;;;;3.72;1.40;;;;;;;25.04;33.94;98277.63;4990697;28;20971;-47
2023/12/31 08:47:19;;;;;;;3.55;1.30;;;;;;;25.04;33.77;98281.13;4984552;28;20555;-45
2023/12/31 08:49:45;;;;;;;2.88;1.30;;;;;;;25.04;33.71;98267.31;4986771;28;20030;-44
2023/12/31 08:52:10;;;;;;;3.83;1.40;;;;;;;25.06;33.82;98275.81;4982336;28;20043;-46
2023/12/31 08:54:36;;;;;;;3.13;1.23;;;;;;;25.07;33.70;98273.81;4983321;28;20023;-42
2023/12/31 08:57:02;;;;;;;4.00;1.50;;;;;;;24.99;33.06;98276.41;4985298;28;20022;-45
2023/12/31 08:59:27;;;;;;;3.05;1.30;;;;;;;25.01;33.70;98262.84;4989603;28;20065;-49
2023/12/31 09:01:53;;;;;;;3.00;1.40;;;;;;;25.11;33.58;98271.47;4988184;28;20031;-45
2023/12/31 09:04:19;;;;;;;4.03;1.52;;;;;;;25.15;33.85;98268.41;4988909;28;20037;-45
2023/12/31 09:06:46;;;;;;;4.05;1.35;;;;;;;25.15;33.55;98265.66;4983960;28;20042;-42
2023/12/31 09:09:11;;;;;;;6.85;1.60;;;;;;;25.13;33.85;98257.16;4984606;28;20378;-43
2023/12/31 09:11:37;;;;;;;3.28;1.30;;;;;;;25.12;33.91;98242.59;4986227;28;20038;-48
2023/12/31 09:14:02;;;;;;;4.05;1.50;;;;;;;25.09;33.52;98232.59;4986904;28;20038;-44
2023/12/31 09:16:28;;;;;;;3.83;1.40;;;;;;;25.13;33.58;98232.31;4983937;28;20106;-42
2023/12/31 09:18:53;;;;;;;3.85;1.30;;;;;;;25.10;33.79;98214.03;4984063;28;20018;-40
2023/12/31 09:21:19;;;;;;;4.72;1.33;;;;;;;25.12;33.87;98208.72;4983719;28;20034;-48
2023/12/31 09:23:45;;;;;;;4.10;1.50;;;;;;;25.11;34.07;98193.44;4983342;28;20608;-45
2023/12/31 09:26:10;;;;;;;3.60;1.20;;;;;;;25.15;34.11;98189.09;4988041;28;20474;-48
2023/12/31 09:28:36;;;;;;;4.32;1.42;;;;;;;25.19;33.95;98208.06;4984980;28;20035;-46
2023/12/31 09:31:02;;;;;;;3.13;1.40;;;;;;;25.20;33.81;98223.38;4986219;28;20390;-44
2023/12/31 09:33:27;;;;;;;4.15;1.70;;;;;;;25.15;33.71;98211.19;4982805;28;20034;-45
2023/12/31 09:35:53;;;;;;;3.92;1.60;;;;;;;25.08;33.30;98216.56;4985299;28;20014;-47
2023/12/31 09:38:19;;;;;;;3.97;1.60;;;;;;;24.94;32.85;98211.03;4987429;28;20029;-44
2023/12/31 09:40:44;;;;;;;3.40;1.60;;;;;;;24.89;32.69;98211.84;4984064;28;20038;-44
2023/12/31 09:43:10;;;;;;;3.40;1.50;;;;;;;24.85;32.42;98205.88;4984061;28;20105;-48
2023/12/31 09:45:35;;;;;;;4.28;1.77;;;;;;;24.83;32.61;98205.66;4989075;28;20126;-49
2023/12/31 09:48:01;;;;;;;4.47;1.75;;;;;;;24.85;32.39;98207.88;4987881;28;20386;-46
2023/12/31 09:50:27;;;;;;;3.95;1.63;;;;;;;24.85;32.26;98211.38;4988493;28;20031;-46
2023/12/31 09:52:54;;;;;;;3.53;1.55;;;;;;;24.83;32.26;98207.66;4992954;28;20032;-45
2023/12/31 09:55:20;;;;;;;4.72;1.77;;;;;;;24.81;32.25;98199.91;5011106;28;20030;-47
2023/12/31 09:57:48;;;;;;;3.70;1.55;;;;;;;24.77;32.11;98204.28;5008290;28;20124;-49
2023/12/31 10:00:14;;;;;;;4.38;1.90;;;;;;;24.77;32.04;98209.78;4983661;28;20038;-48
2023/12/31 10:02:39;;;;;;;7.13;1.90;;;;;;;24.74;31.78;98214.34;4980123;28;20043;-54
2023/12/31 10:05:09;;;;;;;3.45;1.60;;;;;;;24.62;31.43;98215.78;4980466;28;20410;-43
2023/12/31 10:07:34;;;;;;;4.55;1.85;;;;;;;24.65;31.20;98220.25;4981527;28;20097;-42
2023/12/31 10:10:00;;;;;;;4.88;1.80;;;;;;;24.61;30.96;98225.31;4986372;28;20494;-47
2023/12/31 10:12:27;;;;;;;3.85;1.85;;;;;;;24.57;30.72;98219.38;5014178;28;20117;-48
2023/12/31 10:14:53;;;;;;;;;;;;;;;24.56;30.78;98218.63;5015057;28;20650;-48
2023/12/31 10:17:19;;;;;;;4.07;1.85;;;;;;;24.58;30.43;98229.16;4981480;28;20445;-45
2023/12/31 10:19:47;;;;;;;3.80;1.85;;;;;;;24.50;30.47;98248.31;4985054;28;20121;-47
2023/12/31 10:22:16;;;;;;;3.92;2.00;;;;;;;24.37;30.26;98235.22;4999609;28;20038;-50
2023/12/31 10:24:43;;;;;;;3.80;1.70;;;;;;;24.33;30.29;98261.59;4984013;28;20042;-49
2023/12/31 10:27:11;;;;;;;5.47;2.35;;;;;;;24.31;29.98;98284.16;4990143;28;20026;-49
2023/12/31 10:29:37;;;;;;;3.75;1.80;;;;;;;24.25;29.79;98435.13;4994644;28;20367;-49
2023/12/31 10:32:03;;;;;;;4.53;2.10;;;;;;;24.21;29.86;98469.75;4992529;28;20106;-48
2023/12/31 10:34:29;;;;;;;4.70;2.20;;;;;;;24.22;30.33;98471.97;4983375;28;20038;-47
2023/12/31 10:37:05;;;;;;;4.75;2.40;;;;;;;24.19;30.45;98472.25;4979899;28;20022;-49
2023/12/31 10:39:37;;;;;;;5.40;2.50;;;;;;;24.24;30.84;98480.50;4989625;28;20030;-47
2023/12/31 10:42:06;;;;;;;4.60;2.30;;;;;;;24.33;30.94;98468.41;4999554;28;20525;-46
2023/12/31 10:44:33;;;;;;;5.63;2.65;;;;;;;24.43;31.22;98453.00;4984330;28;20598;-49
2023/12/31 10:46:59;;;;;;;5.03;2.30;;;;;;;24.42;31.24;98450.75;4984883;28;20516;-48
2023/12/31 10:49:27;;;;;;;4.72;2.35;;;;;;;24.46;31.45;98442.94;4982551;28;20034;-49
2023/12/31 10:51:53;;;;;;;4.60;2.15;;;;;;;24.57;31.58;98451.84;4986531;28;20120;-51
2023/12/31 10:54:26;;;;;;;5.65;2.20;;;;;;;24.60;31.66;98444.53;4983092;28;20117;-50
2023/12/31 10:56:52;;;;;;;5.03;2.20;;;;;;;24.60;31.71;98445.28;4985659;28;20540;-51
2023/12/31 10:59:18;;;;;;;6.18;2.50;;;;;;;24.61;32.03;98455.03;4983987;28;20057;-50
2023/12/31 11:01:43;;;;;;;4.40;2.25;;;;;;;24.65;32.00;98446.47;5012653;28;20053;-52
2023/12/31 11:04:09;;;;;;;5.63;2.33;;;;;;;24.67;32.16;98450.22;4983326;28;20501;-50
2023/12/31 11:06:34;;;;;;;4.65;2.15;;;;;;;24.69;32.30;98447.69;4983284;28;20497;-50
2023/12/31 11:09:00;;;;;;;4.25;2.25;;;;;;;24.72;32.34;98445.91;5011728;28;20026;-50
2023/12/31 11:11:25;;;;;;;5.53;2.10;;;;;;;24.72;32.22;98443.16;4988367;28;20514;-53
2023/12/31 11:13:52;;;;;;;4.32;2.20;;;;;;;24.75;32.42;98442.09;4982674;28;20041;-53
2023/12/31 11:16:40;;;;;;;3.95;2.10;;;;;;;24.76;32.42;98451.88;5013563;28;20027;-48
2023/12/31 11:19:24;;;;;;;4.22;2.00;;;;;;;24.77;32.60;98447.84;5012009;28;20052;-50
2023/12/31 11:22:02;;;;;;;4.65;2.20;;;;;;;24.75;32.73;98442.09;4984960;28;20656;-51
2023/12/31 11:24:27;;;;;;;5.03;2.00;;;;;;;24.79;32.90;98445.28;4983983;28;20079;-50
2023/12/31 11:27:17;;;;;;;5.03;2.10;;;;;;;24.80;32.94;98452.31;5014884;28;20038;-52